createdAt,value
2019-01-05T00:01:58.481Z,8.70
2019-01-05T00:04:36.753Z,8.87
2019-01-05T00:07:23.378Z,8.40
2019-01-05T00:10:09.548Z,8.57
2019-01-05T00:12:55.836Z,8.57
2019-01-05T00:15:43.688Z,8.60
2019-01-05T00:18:22.969Z,8.87
2019-01-05T00:20:54.240Z,8.40
2019-01-05T00:23:36.503Z,9.03
2019-01-05T00:26:06.564Z,9.63
2019-01-05T00:28:37.373Z,9.37
2019-01-05T00:31:10.458Z,9.40
2019-01-05T00:33:57.227Z,9.03
2019-01-05T00:36:36.609Z,8.87
2019-01-05T00:39:20.227Z,9.03
2019-01-05T00:42:07.545Z,9.15
2019-01-05T00:44:40.804Z,9.20
2019-01-05T00:47:16.316Z,8.80
2019-01-05T00:49:53.733Z,8.87
2019-01-05T00:52:32.929Z,9.03
2019-01-05T00:55:05.683Z,9.57
2019-01-05T00:57:36.481Z,9.33
2019-01-05T01:00:23.017Z,9.63
2019-01-05T01:02:58.971Z,9.87
2019-01-05T01:05:34.710Z,8.83
2019-01-05T01:08:20.473Z,11.17
2019-01-05T01:11:06.645Z,9.73
2019-01-05T01:13:42.877Z,10.87
2019-01-05T01:16:21.732Z,10.50
2019-01-05T01:18:57.470Z,10.60
2019-01-05T01:21:28.260Z,10.63
2019-01-05T01:24:15.491Z,10.13
2019-01-05T01:26:45.455Z,10.83
2019-01-05T01:29:22.373Z,10.73
2019-01-05T01:32:08.858Z,10.03
2019-01-05T01:34:54.464Z,10.03
2019-01-05T01:37:39.462Z,10.17
2019-01-05T01:40:12.200Z,9.43
2019-01-05T01:42:44.968Z,10.30
2019-01-05T01:45:22.591Z,10.17
2019-01-05T01:47:56.400Z,10.83
2019-01-05T01:50:27.494Z,11.70
2019-01-05T01:53:05.976Z,10.67
2019-01-05T01:55:46.979Z,11.57
2019-01-05T01:58:18.157Z,11.47
2019-01-05T02:00:50.772Z,10.30
2019-01-05T02:03:33.012Z,11.80
2019-01-05T02:06:04.577Z,11.30
2019-01-05T02:08:53.901Z,11.30
2019-01-05T02:11:26.100Z,11.20
2019-01-05T02:14:08.020Z,11.37
2019-01-05T02:16:41.157Z,11.40
2019-01-05T02:19:13.625Z,11.47
2019-01-05T02:22:02.644Z,10.80
2019-01-05T02:24:57.675Z,10.90
2019-01-05T02:27:31.818Z,11.67
2019-01-05T02:30:31.804Z,10.80
2019-01-05T02:33:30.214Z,11.43
2019-01-05T02:36:08.897Z,11.40
2019-01-05T02:39:00.671Z,11.70
2019-01-05T02:42:03.338Z,10.73
2019-01-05T02:45:12.152Z,11.30
2019-01-05T02:48:13.520Z,11.83
2019-01-05T02:51:02.697Z,11.17
2019-01-05T02:54:15.930Z,11.50
2019-01-05T02:57:15.396Z,12.33
2019-01-05T03:00:24.596Z,12.73
2019-01-05T03:03:03.393Z,12.00
2019-01-05T03:06:04.720Z,11.10
2019-01-05T03:08:53.927Z,11.37
2019-01-05T03:12:11.788Z,10.83
2019-01-05T03:15:13.330Z,11.17
2019-01-05T03:18:24.882Z,11.23
2019-01-05T03:21:12.445Z,10.63
2019-01-05T03:24:12.226Z,11.53
2019-01-05T03:27:06.140Z,11.17
2019-01-05T03:29:57.811Z,12.33
2019-01-05T03:32:52.743Z,12.20
2019-01-05T03:35:45.974Z,12.73
2019-01-05T03:38:47.294Z,11.23
2019-01-05T03:42:03.689Z,12.27
2019-01-05T03:44:48.567Z,12.20
2019-01-05T03:47:36.273Z,12.53
2019-01-05T03:50:40.540Z,12.73
2019-01-05T03:53:33.937Z,13.73
2019-01-05T03:56:15.625Z,13.37
2019-01-05T03:59:05.897Z,12.73
2019-01-05T04:02:10.304Z,15.07
2019-01-05T04:04:56.324Z,14.07
2019-01-05T04:07:57.447Z,14.10
2019-01-05T04:11:08.962Z,12.73
2019-01-05T04:13:56.575Z,13.77
2019-01-05T04:16:50.353Z,14.10
2019-01-05T04:19:41.879Z,14.07
2019-01-05T04:22:52.510Z,13.93
2019-01-05T04:25:46.342Z,13.97
2019-01-05T04:29:05.424Z,13.27
2019-01-05T04:31:39.108Z,13.33
2019-01-05T04:34:19.185Z,13.97
2019-01-05T04:37:03.337Z,14.57
2019-01-05T04:40:06.470Z,13.77
2019-01-05T04:43:03.292Z,13.03
2019-01-05T04:46:13.865Z,13.27
2019-01-05T04:49:13.855Z,11.10
2019-01-05T04:52:20.928Z,11.77
2019-01-05T04:55:20.878Z,11.50
2019-01-05T04:58:16.268Z,9.83
2019-01-05T05:01:14.485Z,10.18
2019-01-05T05:04:05.144Z,10.63
2019-01-05T05:06:49.772Z,11.60
2019-01-05T05:09:37.051Z,11.13
2019-01-05T05:12:37.945Z,11.23
2019-01-05T05:15:16.701Z,11.20
2019-01-05T05:18:22.111Z,11.67
2019-01-05T05:21:13.407Z,11.00
2019-01-05T05:23:47.434Z,11.03
2019-01-05T05:26:33.494Z,11.60
2019-01-05T05:29:10.674Z,11.07
2019-01-05T05:31:47.617Z,12.28
2019-01-05T05:35:10.149Z,11.27
2019-01-05T05:38:08.426Z,11.63
2019-01-05T05:40:39.792Z,10.47
2019-01-05T05:43:40.857Z,11.07
2019-01-05T05:46:29.440Z,11.83
2019-01-05T05:49:19.053Z,11.57
2019-01-05T05:52:09.856Z,13.07
2019-01-05T05:55:02.059Z,11.37
2019-01-05T05:57:49.874Z,12.30
2019-01-05T06:00:53.876Z,12.47
2019-01-05T06:03:48.787Z,12.63
2019-01-05T06:07:11.245Z,13.30
2019-01-05T06:09:51.314Z,12.50
2019-01-05T06:12:53.854Z,11.40
2019-01-05T06:16:08.409Z,12.40
2019-01-05T06:18:42.493Z,11.67
2019-01-05T06:21:27.317Z,11.37
2019-01-05T06:24:12.888Z,10.83
2019-01-05T06:26:47.208Z,10.10
2019-01-05T06:29:37.950Z,10.07
2019-01-05T06:32:33.340Z,9.60
2019-01-05T06:35:10.628Z,10.00
2019-01-05T06:37:54.098Z,9.93
2019-01-05T06:40:47.982Z,10.20
2019-01-05T06:43:52.303Z,9.53
2019-01-05T06:46:55.427Z,10.00
2019-01-05T06:49:49.558Z,8.60
2019-01-05T06:52:40.097Z,8.13
2019-01-05T06:55:55.238Z,8.50
2019-01-05T06:58:42.762Z,7.83
2019-01-05T07:01:50.905Z,8.20
2019-01-05T07:04:55.412Z,7.70
2019-01-05T07:07:46.243Z,7.97
2019-01-05T07:10:46.848Z,8.53
2019-01-05T07:13:46.563Z,8.57
2019-01-05T07:16:21.193Z,7.53
2019-01-05T07:19:13.373Z,7.20
2019-01-05T07:22:00.655Z,6.87
2019-01-05T07:24:42.716Z,7.05
2019-01-05T07:28:05.505Z,6.55
2019-01-05T07:30:55.136Z,6.60
2019-01-05T07:33:51.972Z,7.00
2019-01-05T07:36:50.606Z,7.07
2019-01-05T07:39:32.539Z,6.97
2019-01-05T07:42:19.870Z,7.37
2019-01-05T07:45:15.892Z,7.42
2019-01-05T07:48:06.731Z,6.83
2019-01-05T07:51:03.941Z,7.63
2019-01-05T07:54:00.947Z,7.53
2019-01-05T07:56:57.621Z,6.83
2019-01-05T07:59:56.100Z,6.63
2019-01-05T08:02:56.790Z,7.00
2019-01-05T08:05:32.969Z,6.90
2019-01-05T08:08:46.400Z,5.93
2019-01-05T08:11:50.756Z,5.10
2019-01-05T08:14:30.453Z,5.55
2019-01-05T08:17:33.339Z,4.80
2019-01-05T08:20:42.381Z,4.87
2019-01-05T08:23:42.381Z,4.30
2019-01-05T08:26:48.146Z,4.10
2019-01-05T08:29:44.069Z,4.17
2019-01-05T08:32:50.024Z,3.63
2019-01-05T08:35:40.958Z,3.13
2019-01-05T08:38:40.920Z,2.90
2019-01-05T08:41:49.711Z,3.40
2019-01-05T08:44:54.611Z,2.45
2019-01-05T08:47:28.448Z,2.90
2019-01-05T08:50:34.534Z,2.42
2019-01-05T08:53:32.484Z,2.93
2019-01-05T08:56:38.985Z,3.03
2019-01-05T08:59:46.489Z,2.60
2019-01-05T09:02:41.755Z,2.33
2019-01-05T09:05:46.711Z,2.27
2019-01-05T09:08:28.492Z,2.40
2019-01-05T09:11:16.316Z,2.45
2019-01-05T09:14:34.299Z,2.35
2019-01-05T09:17:27.620Z,2.20
2019-01-05T09:20:30.245Z,2.07
2019-01-05T09:23:31.478Z,2.07
2019-01-05T09:26:22.181Z,1.97
2019-01-05T09:29:21.025Z,1.77
2019-01-05T09:32:18.941Z,1.80
2019-01-05T09:35:23.281Z,1.73
2019-01-05T09:38:44.626Z,1.60
2019-01-05T09:41:48.434Z,1.90
2019-01-05T09:44:38.889Z,1.73
2019-01-05T09:47:26.120Z,2.22
2019-01-05T09:50:07.724Z,1.70
2019-01-05T09:53:01.170Z,2.00
2019-01-05T09:55:53.139Z,1.73
2019-01-05T09:58:38.159Z,1.67
2019-01-05T10:01:47.292Z,2.20
2019-01-05T10:04:43.702Z,1.73
2019-01-05T10:07:34.506Z,2.10
2019-01-05T10:10:19.116Z,1.52
2019-01-05T10:12:50.387Z,1.57
2019-01-05T10:15:30.443Z,1.98
2019-01-05T10:18:40.597Z,1.70
2019-01-05T10:21:54.970Z,1.70
2019-01-05T10:24:48.285Z,1.67
2019-01-05T10:27:49.700Z,1.82
2019-01-05T10:30:37.755Z,1.77
2019-01-05T10:33:40.326Z,1.50
2019-01-05T10:36:59.898Z,1.83
2019-01-05T10:40:02.841Z,1.37
2019-01-05T10:43:04.269Z,1.42
2019-01-05T10:46:01.372Z,1.33
2019-01-05T10:48:52.165Z,1.20
2019-01-05T10:51:56.337Z,1.60
2019-01-05T10:55:05.014Z,1.33
2019-01-05T10:58:14.956Z,1.70
2019-01-05T11:01:24.850Z,1.57
2019-01-05T11:04:32.151Z,1.30
2019-01-05T11:07:11.055Z,1.30
2019-01-05T11:09:56.229Z,1.20
2019-01-05T11:13:00.544Z,1.10
2019-01-05T11:15:52.603Z,1.23
2019-01-05T11:18:47.916Z,1.27
2019-01-05T11:21:37.525Z,1.13
2019-01-05T11:24:40.364Z,1.20
2019-01-05T11:27:43.472Z,1.73
2019-01-05T11:30:22.234Z,1.73
2019-01-05T11:33:11.795Z,1.53
2019-01-05T11:36:08.761Z,1.60
2019-01-05T11:38:59.204Z,1.60
2019-01-05T11:41:53.812Z,1.50
2019-01-05T11:44:59.507Z,1.20
2019-01-05T11:48:05.619Z,1.53
2019-01-05T11:51:08.186Z,2.10
2019-01-05T11:53:55.517Z,1.50
2019-01-05T11:56:43.390Z,1.33
2019-01-05T11:59:51.744Z,1.50
2019-01-05T12:02:51.432Z,1.77
2019-01-05T12:05:50.747Z,1.40
2019-01-05T12:08:39.235Z,1.50
2019-01-05T12:11:36.140Z,1.50
2019-01-05T12:14:55.147Z,1.70
2019-01-05T12:17:56.689Z,1.10
2019-01-05T12:20:36.402Z,1.00
2019-01-05T12:23:18.521Z,0.97
2019-01-05T12:26:34.614Z,1.33
2019-01-05T12:29:56.976Z,1.00
2019-01-05T12:32:50.652Z,1.10
2019-01-05T12:35:39.729Z,1.10
2019-01-05T12:38:45.324Z,1.00
2019-01-05T12:42:03.521Z,1.10
2019-01-05T12:44:42.049Z,1.23
2019-01-05T12:47:36.272Z,1.10
2019-01-05T12:50:29.484Z,1.33
2019-01-05T12:53:29.059Z,1.00
2019-01-05T12:56:00.324Z,1.20
2019-01-05T12:59:07.257Z,1.03
2019-01-05T13:02:11.428Z,1.40
2019-01-05T13:04:56.460Z,1.17
2019-01-05T13:07:53.057Z,1.60
2019-01-05T13:10:34.805Z,1.30
2019-01-05T13:13:40.677Z,1.53
2019-01-05T13:16:26.745Z,1.30
2019-01-05T13:19:19.927Z,1.50
2019-01-05T13:22:13.633Z,1.53
2019-01-05T13:25:05.717Z,1.40
2019-01-05T13:28:02.802Z,1.70
2019-01-05T13:31:05.612Z,1.60
2019-01-05T13:33:53.593Z,1.83
2019-01-05T13:36:44.965Z,1.67
2019-01-05T13:40:08.837Z,1.30
2019-01-05T13:43:05.469Z,1.50
2019-01-05T13:46:12.865Z,1.80
2019-01-05T13:49:01.947Z,2.03
2019-01-05T13:51:55.618Z,2.00
2019-01-05T13:54:25.397Z,2.10
2019-01-05T13:57:07.117Z,2.00
2019-01-05T13:59:53.500Z,2.20
2019-01-05T14:02:32.426Z,2.40
2019-01-05T14:05:14.549Z,2.80
2019-01-05T14:07:44.660Z,3.00
2019-01-05T14:10:20.592Z,2.50
2019-01-05T14:12:50.714Z,2.80
2019-01-05T14:15:36.833Z,2.67
2019-01-05T14:18:12.498Z,2.70
2019-01-05T14:20:45.348Z,2.73
2019-01-05T14:23:31.628Z,2.87
2019-01-05T14:26:15.916Z,3.30
2019-01-05T14:28:45.647Z,3.97
2019-01-05T14:31:15.697Z,3.20
2019-01-05T14:33:57.533Z,3.27
2019-01-05T14:36:30.368Z,3.00
2019-01-05T14:39:12.231Z,2.70
2019-01-05T14:41:45.752Z,3.10
2019-01-05T14:44:18.574Z,2.60
2019-01-05T14:47:04.617Z,2.90
2019-01-05T14:49:51.882Z,3.03
2019-01-05T14:52:27.854Z,2.90
2019-01-05T14:55:00.508Z,2.17
2019-01-05T14:57:30.677Z,1.87
2019-01-05T15:00:09.625Z,2.17
2019-01-05T15:02:42.350Z,2.20
2019-01-05T15:05:28.989Z,2.30
2019-01-05T15:08:01.462Z,2.23
2019-01-05T15:10:34.160Z,2.13
2019-01-05T15:13:04.219Z,2.30
2019-01-05T15:15:33.932Z,2.17
2019-01-05T15:18:07.065Z,2.10
2019-01-05T15:20:53.277Z,2.37
2019-01-05T15:23:23.007Z,2.50
2019-01-05T15:25:55.711Z,2.63
2019-01-05T15:28:31.119Z,2.23
2019-01-05T15:31:16.995Z,2.63
2019-01-05T15:33:49.746Z,2.17
2019-01-05T15:36:24.861Z,2.63
2019-01-05T15:39:10.933Z,2.50
2019-01-05T15:41:49.498Z,2.60
2019-01-05T15:44:35.379Z,2.33
2019-01-05T15:47:17.069Z,2.40
2019-01-05T15:49:52.377Z,2.90
2019-01-05T15:52:38.720Z,2.97
2019-01-05T15:55:14.661Z,2.73
2019-01-05T15:58:00.993Z,2.77
2019-01-05T16:00:31.040Z,2.83
2019-01-05T16:03:16.913Z,2.50
2019-01-05T16:05:46.969Z,3.00
2019-01-05T16:08:25.792Z,2.87
2019-01-05T16:11:01.872Z,2.67
2019-01-05T16:13:35.026Z,2.40
2019-01-05T16:16:21.327Z,2.73
2019-01-05T16:19:03.379Z,2.60
2019-01-05T16:21:49.758Z,2.20
2019-01-05T16:24:32.118Z,2.63
2019-01-05T16:27:17.916Z,2.67
2019-01-05T16:29:50.724Z,2.80
2019-01-05T16:32:37.046Z,2.90
2019-01-05T16:35:16.578Z,2.60
2019-01-05T16:37:58.230Z,2.60
2019-01-05T16:40:31.091Z,2.37
2019-01-05T16:43:17.842Z,3.00
2019-01-05T16:45:47.717Z,2.73
2019-01-05T16:48:20.333Z,2.30
2019-01-05T16:51:05.531Z,2.30
2019-01-05T16:53:51.624Z,2.47
2019-01-05T16:56:27.528Z,2.40
2019-01-05T16:59:03.532Z,2.47
2019-01-05T17:01:49.116Z,2.43
2019-01-05T17:04:31.493Z,2.53
2019-01-05T17:07:07.439Z,2.03
2019-01-05T17:09:37.568Z,2.20
2019-01-05T17:12:07.636Z,2.20
2019-01-05T17:14:46.545Z,2.20
2019-01-05T17:17:16.611Z,2.13
2019-01-05T17:19:55.514Z,2.27
2019-01-05T17:22:25.615Z,2.10
2019-01-05T17:25:11.798Z,1.80
2019-01-05T17:27:57.693Z,2.07
2019-01-05T17:30:43.649Z,2.00
2019-01-05T17:33:29.735Z,2.20
2019-01-05T17:36:11.489Z,1.90
2019-01-05T17:38:53.071Z,1.87
2019-01-05T17:41:39.337Z,2.10
2019-01-05T17:44:12.070Z,1.70
2019-01-05T17:46:51.237Z,1.90
2019-01-05T17:49:33.367Z,2.03
2019-01-05T17:52:19.652Z,1.60
2019-01-05T17:54:49.365Z,1.53
2019-01-05T17:57:31.033Z,1.60
2019-01-05T18:00:01.284Z,1.70
2019-01-05T18:02:34.120Z,1.47
2019-01-05T18:05:06.694Z,1.80
2019-01-05T18:07:42.488Z,1.90
2019-01-05T18:10:28.821Z,1.60
2019-01-05T18:13:01.871Z,1.63
2019-01-05T18:15:38.210Z,1.73
2019-01-05T18:18:08.585Z,1.70
2019-01-05T18:20:47.676Z,1.60
2019-01-05T18:23:26.850Z,1.67
2019-01-05T18:26:13.005Z,1.90
2019-01-05T18:28:55.077Z,1.77
2019-01-05T18:31:25.304Z,1.63
2019-01-05T18:34:11.537Z,1.70
2019-01-05T18:36:41.375Z,2.00
2019-01-05T18:39:14.325Z,2.10
2019-01-05T18:41:47.668Z,1.60
2019-01-05T18:44:23.687Z,2.30
2019-01-05T18:47:12.860Z,2.30
2019-01-05T18:49:42.644Z,1.93
2019-01-05T18:52:25.042Z,1.90
2019-01-05T18:54:56.691Z,1.83
2019-01-05T18:57:26.480Z,2.17
2019-01-05T19:00:08.606Z,1.87
2019-01-05T19:02:47.493Z,1.80
2019-01-05T19:05:26.270Z,1.87
2019-01-05T19:07:56.340Z,1.70
2019-01-05T19:10:42.430Z,2.00
2019-01-05T19:13:24.370Z,1.47
2019-01-05T19:16:02.981Z,1.87
2019-01-05T19:18:44.287Z,1.60
2019-01-05T19:21:14.356Z,1.70
2019-01-05T19:23:44.419Z,1.40
2019-01-05T19:26:14.558Z,1.63
2019-01-05T19:28:44.321Z,1.83
2019-01-05T19:31:20.172Z,1.70
2019-01-05T19:33:58.908Z,1.73
2019-01-05T19:36:37.538Z,1.67
2019-01-05T19:39:24.360Z,1.80
2019-01-05T19:41:57.049Z,1.40
2019-01-05T19:44:27.157Z,1.80
2019-01-05T19:47:09.043Z,1.90
2019-01-05T19:49:54.885Z,1.77
2019-01-05T19:52:41.044Z,2.50
2019-01-05T19:55:27.342Z,1.93
2019-01-05T19:58:13.471Z,1.67
2019-01-05T20:01:01.385Z,2.10
2019-01-05T20:03:47.766Z,2.00
2019-01-05T20:06:26.333Z,1.77
2019-01-05T20:09:12.654Z,1.90
2019-01-05T20:11:54.705Z,1.80
2019-01-05T20:14:33.430Z,1.97
2019-01-05T20:17:19.512Z,2.03
2019-01-05T20:19:58.212Z,1.87
2019-01-05T20:22:44.638Z,1.97
2019-01-05T20:25:23.781Z,1.87
2019-01-05T20:27:53.511Z,1.80
2019-01-05T20:30:26.277Z,2.00
2019-01-05T20:32:56.369Z,2.40
2019-01-05T20:35:31.894Z,2.40
2019-01-05T20:38:01.965Z,2.07
2019-01-05T20:40:43.874Z,2.40
2019-01-05T20:43:14.234Z,2.40
2019-01-05T20:46:02.517Z,2.27
2019-01-05T20:48:44.144Z,2.60
2019-01-05T20:51:31.874Z,2.27
2019-01-05T20:54:04.586Z,2.63
2019-01-05T20:56:42.734Z,2.63
2019-01-05T20:59:12.798Z,2.63
2019-01-05T21:01:51.300Z,2.43
2019-01-05T21:04:21.380Z,2.70
2019-01-05T21:06:51.441Z,2.73
2019-01-05T21:09:29.921Z,3.33
2019-01-05T21:12:06.386Z,3.10
2019-01-05T21:14:45.792Z,2.83
2019-01-05T21:17:18.618Z,2.73
2019-01-05T21:20:06.790Z,2.77
2019-01-05T21:22:39.601Z,2.80
2019-01-05T21:25:21.147Z,3.00
2019-01-05T21:28:07.454Z,3.07
2019-01-05T21:30:53.612Z,2.93
2019-01-05T21:33:25.866Z,2.30
2019-01-05T21:36:01.174Z,2.63
2019-01-05T21:38:31.522Z,2.50
2019-01-05T21:41:17.726Z,2.20
2019-01-05T21:43:48.091Z,2.90
2019-01-05T21:46:20.759Z,2.40
2019-01-05T21:49:05.633Z,2.73
2019-01-05T21:51:47.612Z,2.73
2019-01-05T21:54:20.228Z,2.43
2019-01-05T21:56:50.031Z,2.80
2019-01-05T21:59:29.034Z,2.43
2019-01-05T22:01:59.212Z,2.10
2019-01-05T22:04:35.016Z,2.10
2019-01-05T22:07:21.722Z,2.57
2019-01-05T22:09:54.381Z,2.20
2019-01-05T22:12:40.093Z,1.90
2019-01-05T22:15:15.985Z,1.73
2019-01-05T22:18:02.440Z,2.03
2019-01-05T22:20:38.560Z,2.23
2019-01-05T22:23:08.632Z,2.10
2019-01-05T22:25:44.173Z,2.13
2019-01-05T22:28:23.173Z,1.60
2019-01-05T22:30:56.176Z,1.80
2019-01-05T22:33:31.650Z,1.90
2019-01-05T22:36:08.921Z,1.80
2019-01-05T22:38:38.978Z,1.73
2019-01-05T22:41:17.933Z,1.87
2019-01-05T22:43:56.711Z,2.00
2019-01-05T22:46:26.440Z,1.67
2019-01-05T22:48:56.534Z,1.70
2019-01-05T22:51:26.862Z,1.67
2019-01-05T22:54:02.829Z,1.37
2019-01-05T22:56:32.655Z,1.83
2019-01-05T22:59:11.814Z,1.80
2019-01-05T23:01:57.793Z,1.40
2019-01-05T23:04:42.473Z,1.77
2019-01-05T23:07:12.534Z,1.53
2019-01-05T23:09:45.210Z,1.90
2019-01-05T23:12:23.677Z,1.80
2019-01-05T23:15:09.726Z,1.80
2019-01-05T23:17:55.747Z,1.90
2019-01-05T23:20:34.681Z,1.90
2019-01-05T23:23:07.222Z,2.00
2019-01-05T23:25:42.676Z,1.90
2019-01-05T23:28:28.986Z,1.60
2019-01-05T23:31:01.872Z,1.83
2019-01-05T23:33:31.966Z,1.70
2019-01-05T23:36:02.029Z,1.53
2019-01-05T23:38:50.430Z,1.73
2019-01-05T23:41:25.906Z,1.50
2019-01-05T23:43:58.925Z,1.50
2019-01-05T23:46:35.063Z,2.10
2019-01-05T23:49:20.967Z,1.60
2019-01-05T23:52:03.423Z,1.80
2019-01-05T23:54:49.443Z,1.70
2019-01-05T23:57:37.381Z,1.60
